sensor_id;sensor_type;location;lat;lon;timestamp;pressure;altitude;pressure_sealevel;temperature;humidity
54554;BME280;40450;55.848;-3.572;2022-11-15T00:01:07;97657.02;;;16.87;67.40
54554;BME280;40450;55.848;-3.572;2022-11-15T00:03:38;97650.53;;;17.14;67.31
54554;BME280;40450;55.848;-3.572;2022-11-15T00:06:09;97651.32;;;17.07;66.65
54554;BME280;40450;55.848;-3.572;2022-11-15T00:08:39;97651.39;;;16.81;66.82
54554;BME280;40450;55.848;-3.572;2022-11-15T00:11:11;97642.31;;;16.85;66.71
54554;BME280;40450;55.848;-3.572;2022-11-15T00:13:40;97643.76;;;16.46;67.62
54554;BME280;40450;55.848;-3.572;2022-11-15T00:16:10;97643.56;;;16.39;67.47
54554;BME280;40450;55.848;-3.572;2022-11-15T00:18:41;97639.08;;;16.74;67.11
54554;BME280;40450;55.848;-3.572;2022-11-15T00:21:12;97638.79;;;16.72;67.13
54554;BME280;40450;55.848;-3.572;2022-11-15T00:23:42;97634.83;;;16.77;66.94
54554;BME280;40450;55.848;-3.572;2022-11-15T00:26:14;97630.81;;;16.73;66.80
54554;BME280;40450;55.848;-3.572;2022-11-15T00:28:42;97624.00;;;16.69;66.78
54554;BME280;40450;55.848;-3.572;2022-11-15T00:31:14;97614.07;;;16.90;66.25
54554;BME280;40450;55.848;-3.572;2022-11-15T00:33:44;97616.14;;;16.55;66.62
54554;BME280;40450;55.848;-3.572;2022-11-15T00:36:13;97611.35;;;16.15;67.41
54554;BME280;40450;55.848;-3.572;2022-11-15T00:38:44;97608.94;;;16.33;67.44
54554;BME280;40450;55.848;-3.572;2022-11-15T00:41:14;97610.75;;;15.93;68.27
54554;BME280;40450;55.848;-3.572;2022-11-15T00:43:44;97609.69;;;15.86;68.59
54554;BME280;40450;55.848;-3.572;2022-11-15T00:46:14;97611.11;;;15.92;67.93
54554;BME280;40450;55.848;-3.572;2022-11-15T00:48:45;97602.72;;;15.99;67.79
54554;BME280;40450;55.848;-3.572;2022-11-15T00:51:15;97600.41;;;15.62;69.00
54554;BME280;40450;55.848;-3.572;2022-11-15T00:53:46;97593.33;;;16.04;68.03
54554;BME280;40450;55.848;-3.572;2022-11-15T00:56:16;97589.86;;;15.42;69.77
54554;BME280;40450;55.848;-3.572;2022-11-15T00:58:47;97586.21;;;15.29;70.34
54554;BME280;40450;55.848;-3.572;2022-11-15T01:01:17;97581.62;;;15.20;70.61
54554;BME280;40450;55.848;-3.572;2022-11-15T01:03:48;97577.85;;;15.65;69.65
54554;BME280;40450;55.848;-3.572;2022-11-15T01:06:18;97571.88;;;15.29;70.45
54554;BME280;40450;55.848;-3.572;2022-11-15T01:08:49;97567.18;;;15.55;69.76
54554;BME280;40450;55.848;-3.572;2022-11-15T01:11:20;97559.58;;;15.82;69.16
54554;BME280;40450;55.848;-3.572;2022-11-15T01:13:51;97562.11;;;15.61;68.98
54554;BME280;40450;55.848;-3.572;2022-11-15T01:16:21;97554.04;;;15.73;69.09
54554;BME280;40450;55.848;-3.572;2022-11-15T01:18:51;97553.55;;;15.38;69.70
54554;BME280;40450;55.848;-3.572;2022-11-15T01:21:21;97550.50;;;15.10;71.21
54554;BME280;40450;55.848;-3.572;2022-11-15T01:23:53;97537.14;;;15.05;70.37
54554;BME280;40450;55.848;-3.572;2022-11-15T01:26:23;97535.45;;;15.04;71.02
54554;BME280;40450;55.848;-3.572;2022-11-15T01:28:53;97539.90;;;14.31;73.53
54554;BME280;40450;55.848;-3.572;2022-11-15T01:31:23;97537.13;;;14.42;73.06
54554;BME280;40450;55.848;-3.572;2022-11-15T01:33:53;97531.28;;;13.78;76.02
54554;BME280;40450;55.848;-3.572;2022-11-15T01:36:24;97524.77;;;14.19;74.34
54554;BME280;40450;55.848;-3.572;2022-11-15T01:38:56;97521.44;;;14.02;75.04
54554;BME280;40450;55.848;-3.572;2022-11-15T01:41:28;97513.17;;;13.89;74.52
54554;BME280;40450;55.848;-3.572;2022-11-15T01:43:57;97508.45;;;13.59;75.94
54554;BME280;40450;55.848;-3.572;2022-11-15T01:46:29;97502.43;;;13.94;75.46
54554;BME280;40450;55.848;-3.572;2022-11-15T01:49:00;97501.50;;;13.79;75.48
54554;BME280;40450;55.848;-3.572;2022-11-15T01:51:29;97493.92;;;13.48;76.74
54554;BME280;40450;55.848;-3.572;2022-11-15T01:54:00;97489.27;;;13.76;75.59
54554;BME280;40450;55.848;-3.572;2022-11-15T01:56:30;97491.51;;;13.17;76.50
54554;BME280;40450;55.848;-3.572;2022-11-15T01:58:59;97481.49;;;13.60;76.07
54554;BME280;40450;55.848;-3.572;2022-11-15T02:01:28;97480.28;;;13.05;76.86
54554;BME280;40450;55.848;-3.572;2022-11-15T02:04:00;97483.30;;;13.23;77.36
54554;BME280;40450;55.848;-3.572;2022-11-15T02:06:29;97484.56;;;13.41;77.30
54554;BME280;40450;55.848;-3.572;2022-11-15T02:09:00;97480.16;;;13.74;76.52
54554;BME280;40450;55.848;-3.572;2022-11-15T02:11:30;97478.53;;;13.72;76.21
54554;BME280;40450;55.848;-3.572;2022-11-15T02:14:01;97471.42;;;13.40;76.05
54554;BME280;40450;55.848;-3.572;2022-11-15T02:16:36;97469.74;;;13.18;77.05
54554;BME280;40450;55.848;-3.572;2022-11-15T02:19:07;97465.12;;;13.27;77.23
54554;BME280;40450;55.848;-3.572;2022-11-15T02:21:35;97461.14;;;13.32;76.87
54554;BME280;40450;55.848;-3.572;2022-11-15T02:26:46;97451.88;;;12.73;78.29
54554;BME280;40450;55.848;-3.572;2022-11-15T02:29:05;97448.33;;;12.43;78.82
54554;BME280;40450;55.848;-3.572;2022-11-15T02:31:36;97445.83;;;12.47;79.26
54554;BME280;40450;55.848;-3.572;2022-11-15T02:34:08;97441.18;;;12.14;80.13
54554;BME280;40450;55.848;-3.572;2022-11-15T02:36:39;97442.88;;;11.94;80.96
54554;BME280;40450;55.848;-3.572;2022-11-15T02:39:05;97439.30;;;12.00;80.42
54554;BME280;40450;55.848;-3.572;2022-11-15T02:41:39;97435.05;;;11.75;81.23
54554;BME280;40450;55.848;-3.572;2022-11-15T02:44:08;97427.38;;;11.24;82.47
54554;BME280;40450;55.848;-3.572;2022-11-15T02:46:36;97425.17;;;11.10;83.95
54554;BME280;40450;55.848;-3.572;2022-11-15T02:49:09;97419.25;;;10.82;84.61
54554;BME280;40450;55.848;-3.572;2022-11-15T02:51:33;97416.31;;;11.12;83.38
54554;BME280;40450;55.848;-3.572;2022-11-15T02:54:04;97417.49;;;11.68;82.25
54554;BME280;40450;55.848;-3.572;2022-11-15T02:56:34;97411.99;;;11.38;82.29
54554;BME280;40450;55.848;-3.572;2022-11-15T02:59:16;97402.62;;;12.14;80.38
54554;BME280;40450;55.848;-3.572;2022-11-15T03:01:42;97396.39;;;11.68;81.12
54554;BME280;40450;55.848;-3.572;2022-11-15T03:04:13;97395.29;;;12.82;78.64
54554;BME280;40450;55.848;-3.572;2022-11-15T03:06:42;97388.05;;;12.17;79.53
54554;BME280;40450;55.848;-3.572;2022-11-15T03:09:10;97384.20;;;12.33;78.69
54554;BME280;40450;55.848;-3.572;2022-11-15T03:11:39;97382.54;;;12.94;78.15
54554;BME280;40450;55.848;-3.572;2022-11-15T03:14:15;97369.01;;;12.98;77.77
54554;BME280;40450;55.848;-3.572;2022-11-15T03:16:39;97366.52;;;13.06;76.99
54554;BME280;40450;55.848;-3.572;2022-11-15T03:19:13;97356.13;;;13.66;76.26
54554;BME280;40450;55.848;-3.572;2022-11-15T03:21:39;97356.17;;;13.92;74.75
54554;BME280;40450;55.848;-3.572;2022-11-15T03:24:08;97357.26;;;14.37;74.16
54554;BME280;40450;55.848;-3.572;2022-11-15T03:26:39;97355.60;;;14.61;72.06
54554;BME280;40450;55.848;-3.572;2022-11-15T03:29:11;97352.43;;;14.73;71.98
54554;BME280;40450;55.848;-3.572;2022-11-15T03:31:43;97358.10;;;11.73;78.22
54554;BME280;40450;55.848;-3.572;2022-11-15T03:34:12;97349.66;;;11.25;80.59
54554;BME280;40450;55.848;-3.572;2022-11-15T03:36:39;97354.53;;;8.62;89.44
54554;BME280;40450;55.848;-3.572;2022-11-15T03:39:11;97344.20;;;10.15;85.15
54554;BME280;40450;55.848;-3.572;2022-11-15T03:41:46;97337.27;;;10.18;84.12
54554;BME280;40450;55.848;-3.572;2022-11-15T03:44:15;97343.95;;;8.27;90.66
54554;BME280;40450;55.848;-3.572;2022-11-15T03:46:47;97333.74;;;8.60;90.43
54554;BME280;40450;55.848;-3.572;2022-11-15T03:49:15;97327.56;;;8.95;88.86
54554;BME280;40450;55.848;-3.572;2022-11-15T03:51:42;97322.74;;;9.48;87.02
54554;BME280;40450;55.848;-3.572;2022-11-15T03:54:13;97322.19;;;11.59;83.27
54554;BME280;40450;55.848;-3.572;2022-11-15T03:56:43;97324.46;;;11.98;80.18
54554;BME280;40450;55.848;-3.572;2022-11-15T03:59:13;97325.98;;;12.71;79.34
54554;BME280;40450;55.848;-3.572;2022-11-15T04:01:44;97315.77;;;13.30;78.01
54554;BME280;40450;55.848;-3.572;2022-11-15T04:04:14;97308.05;;;13.57;76.85
54554;BME280;40450;55.848;-3.572;2022-11-15T04:06:45;97303.01;;;13.99;72.74
54554;BME280;40450;55.848;-3.572;2022-11-15T04:09:15;97300.87;;;14.50;73.77
54554;BME280;40450;55.848;-3.572;2022-11-15T04:11:46;97293.61;;;14.59;72.77
54554;BME280;40450;55.848;-3.572;2022-11-15T04:14:16;97288.14;;;14.72;72.64
54554;BME280;40450;55.848;-3.572;2022-11-15T04:16:46;97283.13;;;14.23;70.72
54554;BME280;40450;55.848;-3.572;2022-11-15T04:19:17;97280.62;;;14.40;69.74
54554;BME280;40450;55.848;-3.572;2022-11-15T04:21:47;97277.97;;;13.79;71.42
54554;BME280;40450;55.848;-3.572;2022-11-15T04:24:17;97275.06;;;13.15;72.88
54554;BME280;40450;55.848;-3.572;2022-11-15T04:26:47;97274.80;;;13.36;72.55
54554;BME280;40450;55.848;-3.572;2022-11-15T04:29:18;97285.87;;;12.51;74.16
54554;BME280;40450;55.848;-3.572;2022-11-15T04:31:48;97283.51;;;12.78;73.56
54554;BME280;40450;55.848;-3.572;2022-11-15T04:34:18;97285.10;;;12.76;74.37
54554;BME280;40450;55.848;-3.572;2022-11-15T04:36:49;97283.69;;;12.77;74.15
54554;BME280;40450;55.848;-3.572;2022-11-15T04:39:19;97282.97;;;13.05;73.44
54554;BME280;40450;55.848;-3.572;2022-11-15T04:41:49;97276.68;;;13.30;73.18
54554;BME280;40450;55.848;-3.572;2022-11-15T04:44:20;97269.75;;;13.78;71.45
54554;BME280;40450;55.848;-3.572;2022-11-15T04:46:51;97265.68;;;13.73;71.95
54554;BME280;40450;55.848;-3.572;2022-11-15T04:49:21;97255.03;;;14.01;71.13
54554;BME280;40450;55.848;-3.572;2022-11-15T04:51:52;97255.79;;;13.70;71.29
54554;BME280;40450;55.848;-3.572;2022-11-15T04:54:22;97253.00;;;13.27;72.01
54554;BME280;40450;55.848;-3.572;2022-11-15T04:56:52;97248.67;;;13.66;71.20
54554;BME280;40450;55.848;-3.572;2022-11-15T04:59:23;97244.16;;;14.00;70.85
54554;BME280;40450;55.848;-3.572;2022-11-15T05:01:53;97245.93;;;12.33;74.14
54554;BME280;40450;55.848;-3.572;2022-11-15T05:04:23;97238.13;;;13.86;71.19
54554;BME280;40450;55.848;-3.572;2022-11-15T05:06:54;97231.69;;;12.84;72.32
54554;BME280;40450;55.848;-3.572;2022-11-15T05:09:24;97228.60;;;12.85;72.19
54554;BME280;40450;55.848;-3.572;2022-11-15T05:11:54;97223.84;;;13.27;71.61
54554;BME280;40450;55.848;-3.572;2022-11-15T05:14:24;97213.93;;;13.20;71.01
54554;BME280;40450;55.848;-3.572;2022-11-15T05:16:55;97208.44;;;13.41;70.57
54554;BME280;40450;55.848;-3.572;2022-11-15T05:19:25;97202.64;;;12.57;72.28
54554;BME280;40450;55.848;-3.572;2022-11-15T05:21:56;97189.89;;;12.38;72.55
54554;BME280;40450;55.848;-3.572;2022-11-15T05:24:26;97181.77;;;12.57;72.64
54554;BME280;40450;55.848;-3.572;2022-11-15T05:26:57;97185.68;;;11.70;74.88
54554;BME280;40450;55.848;-3.572;2022-11-15T05:29:27;97171.12;;;12.37;73.68
54554;BME280;40450;55.848;-3.572;2022-11-15T05:31:57;97165.94;;;11.83;74.45
54554;BME280;40450;55.848;-3.572;2022-11-15T05:34:28;97167.40;;;11.66;74.51
54554;BME280;40450;55.848;-3.572;2022-11-15T05:36:59;97157.61;;;11.32;75.79
54554;BME280;40450;55.848;-3.572;2022-11-15T05:39:28;97151.54;;;11.69;74.94
54554;BME280;40450;55.848;-3.572;2022-11-15T05:42:02;97141.16;;;10.86;77.12
54554;BME280;40450;55.848;-3.572;2022-11-15T05:44:30;97136.41;;;11.24;76.21
54554;BME280;40450;55.848;-3.572;2022-11-15T05:46:59;97131.45;;;11.16;76.31
54554;BME280;40450;55.848;-3.572;2022-11-15T05:49:32;97125.39;;;11.73;75.15
54554;BME280;40450;55.848;-3.572;2022-11-15T05:52:00;97120.10;;;11.74;74.77
54554;BME280;40450;55.848;-3.572;2022-11-15T05:54:30;97114.83;;;11.16;76.26
54554;BME280;40450;55.848;-3.572;2022-11-15T05:57:00;97114.50;;;10.28;78.52
54554;BME280;40450;55.848;-3.572;2022-11-15T05:59:31;97121.33;;;11.16;76.40
54554;BME280;40450;55.848;-3.572;2022-11-15T06:02:01;97123.86;;;11.26;76.64
54554;BME280;40450;55.848;-3.572;2022-11-15T06:04:31;97119.93;;;11.63;74.87
54554;BME280;40450;55.848;-3.572;2022-11-15T06:07:01;97122.79;;;10.83;76.38
54554;BME280;40450;55.848;-3.572;2022-11-15T06:09:31;97122.26;;;11.86;74.10
54554;BME280;40450;55.848;-3.572;2022-11-15T06:12:02;97130.62;;;12.07;72.73
54554;BME280;40450;55.848;-3.572;2022-11-15T06:14:32;97140.62;;;12.50;71.42
54554;BME280;40450;55.848;-3.572;2022-11-15T06:17:02;97146.84;;;12.71;71.07
54554;BME280;40450;55.848;-3.572;2022-11-15T06:19:33;97150.88;;;12.69;70.97
54554;BME280;40450;55.848;-3.572;2022-11-15T06:22:03;97145.25;;;12.66;70.90
54554;BME280;40450;55.848;-3.572;2022-11-15T06:24:34;97142.18;;;12.64;70.71
54554;BME280;40450;55.848;-3.572;2022-11-15T06:27:03;97150.88;;;12.30;71.23
54554;BME280;40450;55.848;-3.572;2022-11-15T06:29:35;97152.21;;;13.27;70.24
54554;BME280;40450;55.848;-3.572;2022-11-15T06:32:05;97151.19;;;12.95;69.75
54554;BME280;40450;55.848;-3.572;2022-11-15T06:34:35;97141.14;;;13.12;69.59
54554;BME280;40450;55.848;-3.572;2022-11-15T06:37:06;97129.09;;;12.60;69.81
54554;BME280;40450;55.848;-3.572;2022-11-15T06:39:36;97120.14;;;12.99;70.00
54554;BME280;40450;55.848;-3.572;2022-11-15T06:42:08;97117.03;;;12.38;70.84
54554;BME280;40450;55.848;-3.572;2022-11-15T06:44:36;97126.67;;;12.05;72.14
54554;BME280;40450;55.848;-3.572;2022-11-15T06:47:07;97130.70;;;11.20;74.90
54554;BME280;40450;55.848;-3.572;2022-11-15T06:49:36;97115.07;;;11.91;72.41
54554;BME280;40450;55.848;-3.572;2022-11-15T06:52:06;97116.90;;;11.32;73.91
54554;BME280;40450;55.848;-3.572;2022-11-15T06:54:37;97107.70;;;11.93;73.35
54554;BME280;40450;55.848;-3.572;2022-11-15T06:57:07;97117.30;;;12.06;72.98
54554;BME280;40450;55.848;-3.572;2022-11-15T06:59:37;97121.28;;;11.86;73.27
54554;BME280;40450;55.848;-3.572;2022-11-15T07:02:12;97111.88;;;12.06;73.52
54554;BME280;40450;55.848;-3.572;2022-11-15T07:04:37;97107.91;;;11.96;74.23
54554;BME280;40450;55.848;-3.572;2022-11-15T07:07:09;97102.92;;;11.59;74.86
54554;BME280;40450;55.848;-3.572;2022-11-15T07:09:38;97107.96;;;11.44;75.39
54554;BME280;40450;55.848;-3.572;2022-11-15T07:12:08;97111.81;;;11.86;74.45
54554;BME280;40450;55.848;-3.572;2022-11-15T07:14:39;97113.46;;;11.77;74.77
54554;BME280;40450;55.848;-3.572;2022-11-15T07:17:09;97105.78;;;12.15;74.47
54554;BME280;40450;55.848;-3.572;2022-11-15T07:19:40;97112.22;;;11.84;75.77
54554;BME280;40450;55.848;-3.572;2022-11-15T07:22:10;97114.17;;;12.01;74.56
54554;BME280;40450;55.848;-3.572;2022-11-15T07:24:41;97112.47;;;12.16;74.07
54554;BME280;40450;55.848;-3.572;2022-11-15T07:27:11;97106.77;;;12.12;73.74
54554;BME280;40450;55.848;-3.572;2022-11-15T07:29:42;97101.93;;;12.27;73.69
54554;BME280;40450;55.848;-3.572;2022-11-15T07:32:12;97107.02;;;12.03;74.24
54554;BME280;40450;55.848;-3.572;2022-11-15T07:34:42;97106.80;;;12.01;73.94
54554;BME280;40450;55.848;-3.572;2022-11-15T07:37:13;97104.82;;;11.40;75.99
54554;BME280;40450;55.848;-3.572;2022-11-15T07:39:44;97097.71;;;11.00;77.57
54554;BME280;40450;55.848;-3.572;2022-11-15T07:42:14;97091.62;;;10.64;79.24
54554;BME280;40450;55.848;-3.572;2022-11-15T07:44:49;97084.62;;;9.91;81.71
54554;BME280;40450;55.848;-3.572;2022-11-15T07:47:13;97086.79;;;10.21;81.01
54554;BME280;40450;55.848;-3.572;2022-11-15T07:49:44;97080.32;;;10.10;81.23
54554;BME280;40450;55.848;-3.572;2022-11-15T07:52:15;97079.16;;;9.97;81.91
54554;BME280;40450;55.848;-3.572;2022-11-15T07:54:45;97074.61;;;9.85;82.26
54554;BME280;40450;55.848;-3.572;2022-11-15T07:57:14;97072.35;;;10.39;80.53
54554;BME280;40450;55.848;-3.572;2022-11-15T07:59:45;97076.53;;;11.06;79.70
54554;BME280;40450;55.848;-3.572;2022-11-15T08:02:15;97075.93;;;10.60;80.09
54554;BME280;40450;55.848;-3.572;2022-11-15T08:04:45;97070.64;;;11.39;78.22
54554;BME280;40450;55.848;-3.572;2022-11-15T08:07:16;97071.16;;;11.51;77.78
54554;BME280;40450;55.848;-3.572;2022-11-15T08:09:47;97068.12;;;11.51;78.34
54554;BME280;40450;55.848;-3.572;2022-11-15T08:12:16;97068.00;;;11.13;79.25
54554;BME280;40450;55.848;-3.572;2022-11-15T08:14:48;97066.12;;;10.84;80.51
54554;BME280;40450;55.848;-3.572;2022-11-15T08:17:18;97068.88;;;11.27;79.79
54554;BME280;40450;55.848;-3.572;2022-11-15T08:19:48;97065.92;;;11.55;78.37
54554;BME280;40450;55.848;-3.572;2022-11-15T08:22:19;97056.38;;;12.26;77.82
54554;BME280;40450;55.848;-3.572;2022-11-15T08:24:48;97043.83;;;12.05;77.58
54554;BME280;40450;55.848;-3.572;2022-11-15T08:27:18;97040.34;;;11.83;78.36
54554;BME280;40450;55.848;-3.572;2022-11-15T08:29:49;97040.60;;;11.57;78.25
54554;BME280;40450;55.848;-3.572;2022-11-15T08:32:19;97026.92;;;11.89;78.39
54554;BME280;40450;55.848;-3.572;2022-11-15T08:34:50;97020.88;;;12.10;77.31
54554;BME280;40450;55.848;-3.572;2022-11-15T08:37:20;97018.04;;;12.63;76.85
54554;BME280;40450;55.848;-3.572;2022-11-15T08:39:50;97018.74;;;11.82;78.39
54554;BME280;40450;55.848;-3.572;2022-11-15T08:42:20;97015.51;;;11.72;77.79
54554;BME280;40450;55.848;-3.572;2022-11-15T08:44:50;97008.32;;;11.31;80.30
54554;BME280;40450;55.848;-3.572;2022-11-15T08:47:21;97003.60;;;11.99;78.44
54554;BME280;40450;55.848;-3.572;2022-11-15T08:49:51;97001.02;;;12.35;77.69
54554;BME280;40450;55.848;-3.572;2022-11-15T08:52:21;96999.16;;;11.68;79.24
54554;BME280;40450;55.848;-3.572;2022-11-15T08:54:51;96995.26;;;11.79;79.01
54554;BME280;40450;55.848;-3.572;2022-11-15T08:57:22;96996.36;;;11.74;79.22
54554;BME280;40450;55.848;-3.572;2022-11-15T08:59:52;96993.04;;;12.00;78.65
54554;BME280;40450;55.848;-3.572;2022-11-15T09:02:22;97000.18;;;11.35;80.66
54554;BME280;40450;55.848;-3.572;2022-11-15T09:04:53;97007.20;;;10.73;82.17
54554;BME280;40450;55.848;-3.572;2022-11-15T09:07:23;96994.64;;;11.21;81.93
54554;BME280;40450;55.848;-3.572;2022-11-15T09:09:53;96994.12;;;10.90;81.92
54554;BME280;40450;55.848;-3.572;2022-11-15T09:12:24;96982.32;;;11.70;80.15
54554;BME280;40450;55.848;-3.572;2022-11-15T09:14:54;96985.35;;;12.17;78.47
54554;BME280;40450;55.848;-3.572;2022-11-15T09:17:24;96989.42;;;12.25;78.56
54554;BME280;40450;55.848;-3.572;2022-11-15T09:19:54;96981.93;;;12.15;78.57
54554;BME280;40450;55.848;-3.572;2022-11-15T09:22:24;96977.61;;;12.64;77.94
54554;BME280;40450;55.848;-3.572;2022-11-15T09:24:55;96972.38;;;12.78;76.98
54554;BME280;40450;55.848;-3.572;2022-11-15T09:27:32;96966.31;;;13.57;75.01
54554;BME280;40450;55.848;-3.572;2022-11-15T09:29:56;96968.22;;;12.94;76.19
54554;BME280;40450;55.848;-3.572;2022-11-15T09:32:28;96960.27;;;12.94;76.43
54554;BME280;40450;55.848;-3.572;2022-11-15T09:34:57;96951.15;;;12.76;76.82
54554;BME280;40450;55.848;-3.572;2022-11-15T09:37:26;96946.71;;;12.20;78.19
54554;BME280;40450;55.848;-3.572;2022-11-15T09:39:57;96947.40;;;12.80;77.04
54554;BME280;40450;55.848;-3.572;2022-11-15T09:42:41;96942.30;;;12.96;76.81
54554;BME280;40450;55.848;-3.572;2022-11-15T09:45:09;96939.99;;;12.71;77.40
54554;BME280;40450;55.848;-3.572;2022-11-15T09:47:41;96939.34;;;12.00;79.08
54554;BME280;40450;55.848;-3.572;2022-11-15T09:50:06;96940.65;;;11.55;80.46
54554;BME280;40450;55.848;-3.572;2022-11-15T09:52:33;96938.25;;;11.54;80.91
54554;BME280;40450;55.848;-3.572;2022-11-15T09:55:01;96933.62;;;11.53;81.11
54554;BME280;40450;55.848;-3.572;2022-11-15T09:57:37;96927.36;;;11.50;81.47
54554;BME280;40450;55.848;-3.572;2022-11-15T10:00:12;96930.61;;;11.96;80.76
54554;BME280;40450;55.848;-3.572;2022-11-15T10:02:43;96924.98;;;12.17;79.57
54554;BME280;40450;55.848;-3.572;2022-11-15T10:05:02;96922.79;;;12.26;79.56
54554;BME280;40450;55.848;-3.572;2022-11-15T10:07:40;96919.02;;;11.88;80.84
54554;BME280;40450;55.848;-3.572;2022-11-15T10:10:09;96916.56;;;12.31;80.06
54554;BME280;40450;55.848;-3.572;2022-11-15T10:12:33;96910.69;;;11.82;80.85
54554;BME280;40450;55.848;-3.572;2022-11-15T10:15:08;96903.73;;;12.32;79.73
54554;BME280;40450;55.848;-3.572;2022-11-15T10:17:45;96899.98;;;12.95;78.96
54554;BME280;40450;55.848;-3.572;2022-11-15T10:20:12;96901.66;;;12.14;78.99
54554;BME280;40450;55.848;-3.572;2022-11-15T10:22:39;96898.13;;;12.76;77.93
54554;BME280;40450;55.848;-3.572;2022-11-15T10:25:18;96897.50;;;13.15;77.55
54554;BME280;40450;55.848;-3.572;2022-11-15T10:27:35;96893.19;;;13.32;76.29
54554;BME280;40450;55.848;-3.572;2022-11-15T10:30:11;96892.49;;;12.98;77.06
54554;BME280;40450;55.848;-3.572;2022-11-15T10:32:36;96884.74;;;13.33;75.81
54554;BME280;40450;55.848;-3.572;2022-11-15T10:37:36;96886.94;;;13.85;75.66
54554;BME280;40450;55.848;-3.572;2022-11-15T10:40:15;96885.46;;;13.88;75.30
54554;BME280;40450;55.848;-3.572;2022-11-15T10:42:37;96876.94;;;13.60;75.17
54554;BME280;40450;55.848;-3.572;2022-11-15T10:47:37;96867.77;;;14.10;74.13
54554;BME280;40450;55.848;-3.572;2022-11-15T10:52:45;96857.22;;;13.73;74.96
54554;BME280;40450;55.848;-3.572;2022-11-15T10:57:49;96846.07;;;13.43;74.92
54554;BME280;40450;55.848;-3.572;2022-11-15T11:02:45;96839.42;;;13.78;74.42
54554;BME280;40450;55.848;-3.572;2022-11-15T11:07:40;96826.51;;;14.52;73.04
54554;BME280;40450;55.848;-3.572;2022-11-15T11:10:17;96825.38;;;13.75;74.17
54554;BME280;40450;55.848;-3.572;2022-11-15T11:12:41;96822.62;;;13.48;74.78
54554;BME280;40450;55.848;-3.572;2022-11-15T11:15:15;96820.54;;;13.89;74.50
54554;BME280;40450;55.848;-3.572;2022-11-15T11:17:53;96815.92;;;13.75;74.11
54554;BME280;40450;55.848;-3.572;2022-11-15T11:20:18;96809.56;;;14.19;73.42
54554;BME280;40450;55.848;-3.572;2022-11-15T11:22:53;96811.66;;;12.88;77.16
54554;BME280;40450;55.848;-3.572;2022-11-15T11:25:21;96807.72;;;14.33;74.26
54554;BME280;40450;55.848;-3.572;2022-11-15T11:27:50;96802.59;;;14.33;73.18
54554;BME280;40450;55.848;-3.572;2022-11-15T11:30:16;96797.17;;;14.41;73.15
54554;BME280;40450;55.848;-3.572;2022-11-15T11:35:17;96792.28;;;14.37;72.95
54554;BME280;40450;55.848;-3.572;2022-11-15T11:37:49;96791.70;;;14.20;72.90
54554;BME280;40450;55.848;-3.572;2022-11-15T11:40:26;96781.58;;;14.63;72.17
54554;BME280;40450;55.848;-3.572;2022-11-15T11:42:52;96778.28;;;14.12;72.67
54554;BME280;40450;55.848;-3.572;2022-11-15T11:45:19;96773.41;;;13.62;74.14
54554;BME280;40450;55.848;-3.572;2022-11-15T11:47:50;96769.68;;;13.93;73.73
54554;BME280;40450;55.848;-3.572;2022-11-15T11:50:19;96760.86;;;14.35;73.28
54554;BME280;40450;55.848;-3.572;2022-11-15T11:52:54;96760.59;;;14.69;72.05
54554;BME280;40450;55.848;-3.572;2022-11-15T11:55:21;96760.26;;;14.66;72.01
54554;BME280;40450;55.848;-3.572;2022-11-15T11:57:50;96763.05;;;13.77;73.86
54554;BME280;40450;55.848;-3.572;2022-11-15T12:00:20;96757.48;;;14.11;73.21
54554;BME280;40450;55.848;-3.572;2022-11-15T12:02:55;96759.25;;;14.57;72.08
54554;BME280;40450;55.848;-3.572;2022-11-15T12:05:22;96757.99;;;13.60;74.23
54554;BME280;40450;55.848;-3.572;2022-11-15T12:07:50;96751.58;;;13.84;74.04
54554;BME280;40450;55.848;-3.572;2022-11-15T12:10:23;96748.05;;;13.61;74.68
54554;BME280;40450;55.848;-3.572;2022-11-15T12:12:55;96749.80;;;13.16;75.66
54554;BME280;40450;55.848;-3.572;2022-11-15T12:15:22;96747.81;;;13.08;76.67
54554;BME280;40450;55.848;-3.572;2022-11-15T12:17:49;96744.57;;;12.97;77.35
54554;BME280;40450;55.848;-3.572;2022-11-15T12:20:23;96731.75;;;13.54;76.01
54554;BME280;40450;55.848;-3.572;2022-11-15T12:22:56;96735.59;;;13.34;76.37
54554;BME280;40450;55.848;-3.572;2022-11-15T12:25:24;96730.59;;;13.25;76.37
54554;BME280;40450;55.848;-3.572;2022-11-15T12:27:54;96731.89;;;12.70;78.21
54554;BME280;40450;55.848;-3.572;2022-11-15T12:30:22;96723.65;;;13.50;76.81
54554;BME280;40450;55.848;-3.572;2022-11-15T12:32:54;96716.83;;;12.47;79.53
54554;BME280;40450;55.848;-3.572;2022-11-15T12:35:27;96712.16;;;12.80;77.43
54554;BME280;40450;55.848;-3.572;2022-11-15T12:37:53;96709.46;;;13.18;77.62
54554;BME280;40450;55.848;-3.572;2022-11-15T12:40:26;96708.63;;;13.10;77.60
54554;BME280;40450;55.848;-3.572;2022-11-15T12:42:58;96705.61;;;12.82;77.03
54554;BME280;40450;55.848;-3.572;2022-11-15T12:45:26;96700.51;;;13.30;76.60
54554;BME280;40450;55.848;-3.572;2022-11-15T12:47:53;96703.75;;;12.88;77.90
54554;BME280;40450;55.848;-3.572;2022-11-15T12:55:30;96697.69;;;12.19;80.17
54554;BME280;40450;55.848;-3.572;2022-11-15T12:57:55;96693.10;;;12.11;80.74
54554;BME280;40450;55.848;-3.572;2022-11-15T13:00:37;96682.34;;;11.46;82.21
54554;BME280;40450;55.848;-3.572;2022-11-15T13:07:57;96680.27;;;11.07;84.25
54554;BME280;40450;55.848;-3.572;2022-11-15T13:10:32;96679.28;;;11.10;84.17
54554;BME280;40450;55.848;-3.572;2022-11-15T13:12:58;96672.09;;;11.40;84.19
54554;BME280;40450;55.848;-3.572;2022-11-15T13:15:34;96669.61;;;11.79;83.03
54554;BME280;40450;55.848;-3.572;2022-11-15T13:17:58;96670.54;;;11.40;83.53
54554;BME280;40450;55.848;-3.572;2022-11-15T13:20:29;96664.13;;;11.91;82.37
54554;BME280;40450;55.848;-3.572;2022-11-15T13:23:07;96664.64;;;12.08;82.15
54554;BME280;40450;55.848;-3.572;2022-11-15T13:28:00;96660.98;;;12.14;81.62
54554;BME280;40450;55.848;-3.572;2022-11-15T13:30:30;96659.00;;;12.27;81.47
54554;BME280;40450;55.848;-3.572;2022-11-15T13:33:07;96654.48;;;12.74;81.01
54554;BME280;40450;55.848;-3.572;2022-11-15T13:35:33;96651.57;;;13.42;79.63
54554;BME280;40450;55.848;-3.572;2022-11-15T13:38:04;96657.05;;;13.69;77.86